sensor_id;sensor_type;location;lat;lon;timestamp;pressure;altitude;pressure_sealevel;temperature;humidity
60642;BME280;46837;52.446;-1.930;2023-04-06T00:00:10;99959.94;;;10.11;89.75
60642;BME280;46837;52.446;-1.930;2023-04-06T00:01:09;99962.13;;;10.13;89.51
60642;BME280;46837;52.446;-1.930;2023-04-06T00:02:09;99961.05;;;10.14;89.51
60642;BME280;46837;52.446;-1.930;2023-04-06T00:03:09;99962.84;;;10.13;89.50
60642;BME280;46837;52.446;-1.930;2023-04-06T00:04:09;99959.51;;;10.12;89.45
60642;BME280;46837;52.446;-1.930;2023-04-06T00:05:09;99960.77;;;10.07;89.64
60642;BME280;46837;52.446;-1.930;2023-04-06T00:06:09;99960.28;;;10.10;89.88
60642;BME280;46837;52.446;-1.930;2023-04-06T00:07:09;99955.19;;;10.09;89.65
60642;BME280;46837;52.446;-1.930;2023-04-06T00:08:09;99956.38;;;10.04;89.73
60642;BME280;46837;52.446;-1.930;2023-04-06T00:09:09;99955.68;;;10.06;89.78
60642;BME280;46837;52.446;-1.930;2023-04-06T00:10:09;99951.64;;;10.03;89.74
60642;BME280;46837;52.446;-1.930;2023-04-06T00:11:09;99950.66;;;10.03;89.81
60642;BME280;46837;52.446;-1.930;2023-04-06T00:12:09;99951.57;;;10.01;89.80
60642;BME280;46837;52.446;-1.930;2023-04-06T00:13:09;99948.83;;;9.97;90.08
60642;BME280;46837;52.446;-1.930;2023-04-06T00:14:09;99947.26;;;10.01;90.20
60642;BME280;46837;52.446;-1.930;2023-04-06T00:15:09;99945.52;;;9.99;89.86
60642;BME280;46837;52.446;-1.930;2023-04-06T00:16:09;99941.09;;;9.99;90.07
60642;BME280;46837;52.446;-1.930;2023-04-06T00:17:09;99937.88;;;10.03;90.04
60642;BME280;46837;52.446;-1.930;2023-04-06T00:18:09;99936.30;;;10.03;89.85
60642;BME280;46837;52.446;-1.930;2023-04-06T00:19:09;99935.87;;;10.04;89.86
60642;BME280;46837;52.446;-1.930;2023-04-06T00:20:09;99938.37;;;10.09;89.94
60642;BME280;46837;52.446;-1.930;2023-04-06T00:21:11;99941.48;;;10.11;89.66
60642;BME280;46837;52.446;-1.930;2023-04-06T00:22:09;99933.63;;;10.13;89.56
60642;BME280;46837;52.446;-1.930;2023-04-06T00:23:09;99940.94;;;10.15;89.50
60642;BME280;46837;52.446;-1.930;2023-04-06T00:24:09;99939.84;;;10.11;89.48
60642;BME280;46837;52.446;-1.930;2023-04-06T00:25:09;99938.70;;;10.11;89.58
60642;BME280;46837;52.446;-1.930;2023-04-06T00:26:09;99935.26;;;10.11;89.53
60642;BME280;46837;52.446;-1.930;2023-04-06T00:27:09;99935.49;;;10.10;89.53
60642;BME280;46837;52.446;-1.930;2023-04-06T00:28:09;99935.15;;;10.11;89.69
60642;BME280;46837;52.446;-1.930;2023-04-06T00:29:09;99930.63;;;10.13;89.63
60642;BME280;46837;52.446;-1.930;2023-04-06T00:30:09;99931.16;;;10.14;89.46
60642;BME280;46837;52.446;-1.930;2023-04-06T00:31:09;99925.17;;;10.16;89.39
60642;BME280;46837;52.446;-1.930;2023-04-06T00:32:09;99926.05;;;10.18;89.23
60642;BME280;46837;52.446;-1.930;2023-04-06T00:33:09;99924.73;;;10.12;89.36
60642;BME280;46837;52.446;-1.930;2023-04-06T00:34:09;99921.83;;;10.12;89.76
60642;BME280;46837;52.446;-1.930;2023-04-06T00:35:09;99924.72;;;10.11;89.67
60642;BME280;46837;52.446;-1.930;2023-04-06T00:36:09;99927.62;;;10.12;89.65
60642;BME280;46837;52.446;-1.930;2023-04-06T00:37:09;99927.63;;;10.14;89.64
60642;BME280;46837;52.446;-1.930;2023-04-06T00:38:09;99925.88;;;10.16;89.58
60642;BME280;46837;52.446;-1.930;2023-04-06T00:39:09;99922.76;;;10.19;89.36
60642;BME280;46837;52.446;-1.930;2023-04-06T00:40:09;99921.12;;;10.15;89.36
60642;BME280;46837;52.446;-1.930;2023-04-06T00:41:09;99920.74;;;10.15;89.56
60642;BME280;46837;52.446;-1.930;2023-04-06T00:42:12;99917.25;;;10.15;89.49
60642;BME280;46837;52.446;-1.930;2023-04-06T00:43:09;99917.42;;;10.16;89.54
60642;BME280;46837;52.446;-1.930;2023-04-06T00:44:09;99917.04;;;10.14;89.60
60642;BME280;46837;52.446;-1.930;2023-04-06T00:45:09;99915.29;;;10.16;89.59
60642;BME280;46837;52.446;-1.930;2023-04-06T00:46:09;99913.75;;;10.18;89.40
60642;BME280;46837;52.446;-1.930;2023-04-06T00:47:09;99910.49;;;10.21;89.20
60642;BME280;46837;52.446;-1.930;2023-04-06T00:48:09;99911.14;;;10.16;89.16
60642;BME280;46837;52.446;-1.930;2023-04-06T00:49:09;99908.25;;;10.14;89.56
60642;BME280;46837;52.446;-1.930;2023-04-06T00:50:09;99906.27;;;10.15;89.44
60642;BME280;46837;52.446;-1.930;2023-04-06T00:51:09;99908.68;;;10.17;89.43
60642;BME280;46837;52.446;-1.930;2023-04-06T00:52:09;99908.69;;;10.18;89.31
60642;BME280;46837;52.446;-1.930;2023-04-06T00:53:09;99909.94;;;10.21;89.29
60642;BME280;46837;52.446;-1.930;2023-04-06T00:54:09;99907.64;;;10.16;89.31
60642;BME280;46837;52.446;-1.930;2023-04-06T00:55:09;99910.80;;;10.18;89.44
60642;BME280;46837;52.446;-1.930;2023-04-06T00:56:09;99907.69;;;10.19;89.38
60642;BME280;46837;52.446;-1.930;2023-04-06T00:57:09;99910.31;;;10.19;89.32
60642;BME280;46837;52.446;-1.930;2023-04-06T00:58:09;99907.03;;;10.15;89.38
60642;BME280;46837;52.446;-1.930;2023-04-06T00:59:09;99908.02;;;10.10;89.56
60642;BME280;46837;52.446;-1.930;2023-04-06T01:00:09;99901.26;;;10.11;89.70
60642;BME280;46837;52.446;-1.930;2023-04-06T01:01:09;99897.70;;;10.11;89.67
60642;BME280;46837;52.446;-1.930;2023-04-06T01:02:09;99898.36;;;10.10;89.70
60642;BME280;46837;52.446;-1.930;2023-04-06T01:03:09;99899.07;;;10.12;89.77
60642;BME280;46837;52.446;-1.930;2023-04-06T01:04:09;99898.20;;;10.14;89.74
60642;BME280;46837;52.446;-1.930;2023-04-06T01:05:09;99892.19;;;10.16;89.68
60642;BME280;46837;52.446;-1.930;2023-04-06T01:06:09;99898.46;;;10.15;89.51
60642;BME280;46837;52.446;-1.930;2023-04-06T01:07:09;99895.53;;;10.14;89.62
60642;BME280;46837;52.446;-1.930;2023-04-06T01:08:09;99895.84;;;10.12;89.67
60642;BME280;46837;52.446;-1.930;2023-04-06T01:09:09;99897.48;;;10.12;89.73
60642;BME280;46837;52.446;-1.930;2023-04-06T01:10:09;99893.12;;;10.13;89.76
60642;BME280;46837;52.446;-1.930;2023-04-06T01:11:09;99894.70;;;10.07;89.61
60642;BME280;46837;52.446;-1.930;2023-04-06T01:12:09;99890.22;;;10.05;90.03
60642;BME280;46837;52.446;-1.930;2023-04-06T01:13:09;99886.57;;;10.07;90.05
60642;BME280;46837;52.446;-1.930;2023-04-06T01:14:09;99885.14;;;9.99;90.27
60642;BME280;46837;52.446;-1.930;2023-04-06T01:15:09;99884.49;;;9.99;90.44
60642;BME280;46837;52.446;-1.930;2023-04-06T01:16:09;99880.50;;;10.02;90.41
60642;BME280;46837;52.446;-1.930;2023-04-06T01:17:09;99881.27;;;10.06;90.22
60642;BME280;46837;52.446;-1.930;2023-04-06T01:18:09;99886.52;;;10.07;89.96
60642;BME280;46837;52.446;-1.930;2023-04-06T01:19:12;99887.11;;;10.02;90.14
60642;BME280;46837;52.446;-1.930;2023-04-06T01:20:09;99885.86;;;10.03;90.26
60642;BME280;46837;52.446;-1.930;2023-04-06T01:21:09;99885.91;;;10.06;90.09
60642;BME280;46837;52.446;-1.930;2023-04-06T01:22:13;99887.71;;;10.06;90.14
60642;BME280;46837;52.446;-1.930;2023-04-06T01:23:09;99885.14;;;10.05;90.09
60642;BME280;46837;52.446;-1.930;2023-04-06T01:24:09;99880.34;;;10.06;90.12
60642;BME280;46837;52.446;-1.930;2023-04-06T01:25:09;99881.10;;;10.08;90.08
60642;BME280;46837;52.446;-1.930;2023-04-06T01:26:09;99881.98;;;10.06;90.08
60642;BME280;46837;52.446;-1.930;2023-04-06T01:27:09;99877.55;;;10.05;90.17
60642;BME280;46837;52.446;-1.930;2023-04-06T01:28:09;99872.70;;;10.06;90.29
60642;BME280;46837;52.446;-1.930;2023-04-06T01:29:09;99871.33;;;10.05;90.22
60642;BME280;46837;52.446;-1.930;2023-04-06T01:30:09;99869.75;;;10.03;90.27
60642;BME280;46837;52.446;-1.930;2023-04-06T01:31:09;99869.63;;;10.04;90.38
60642;BME280;46837;52.446;-1.930;2023-04-06T01:32:09;99871.49;;;10.06;90.34
60642;BME280;46837;52.446;-1.930;2023-04-06T01:33:09;99864.57;;;10.03;90.29
60642;BME280;46837;52.446;-1.930;2023-04-06T01:34:09;99864.13;;;10.03;90.42
60642;BME280;46837;52.446;-1.930;2023-04-06T01:35:09;99866.75;;;10.06;90.33
60642;BME280;46837;52.446;-1.930;2023-04-06T01:36:09;99860.95;;;10.08;90.21
60642;BME280;46837;52.446;-1.930;2023-04-06T01:37:09;99861.50;;;10.08;90.14
60642;BME280;46837;52.446;-1.930;2023-04-06T01:38:09;99859.33;;;10.11;90.15
60642;BME280;46837;52.446;-1.930;2023-04-06T01:39:09;99863.30;;;10.15;90.11
60642;BME280;46837;52.446;-1.930;2023-04-06T01:40:09;99857.13;;;10.15;89.89
60642;BME280;46837;52.446;-1.930;2023-04-06T01:41:09;99853.71;;;10.14;89.92
60642;BME280;46837;52.446;-1.930;2023-04-06T01:42:09;99850.74;;;10.15;89.97
60642;BME280;46837;52.446;-1.930;2023-04-06T01:43:09;99854.41;;;10.14;89.85
60642;BME280;46837;52.446;-1.930;2023-04-06T01:44:09;99849.16;;;10.16;89.99
60642;BME280;46837;52.446;-1.930;2023-04-06T01:45:09;99845.73;;;10.17;89.97
60642;BME280;46837;52.446;-1.930;2023-04-06T01:46:09;99841.57;;;10.13;90.00
60642;BME280;46837;52.446;-1.930;2023-04-06T01:47:09;99839.01;;;10.16;90.08
60642;BME280;46837;52.446;-1.930;2023-04-06T01:48:09;99837.70;;;10.17;89.79
60642;BME280;46837;52.446;-1.930;2023-04-06T01:49:09;99832.34;;;10.15;89.67
60642;BME280;46837;52.446;-1.930;2023-04-06T01:50:09;99831.10;;;10.14;89.84
60642;BME280;46837;52.446;-1.930;2023-04-06T01:51:09;99833.38;;;10.14;89.90
60642;BME280;46837;52.446;-1.930;2023-04-06T01:52:09;99834.03;;;10.14;89.98
60642;BME280;46837;52.446;-1.930;2023-04-06T01:53:09;99827.82;;;10.14;89.98
60642;BME280;46837;52.446;-1.930;2023-04-06T01:54:09;99830.11;;;10.16;89.95
60642;BME280;46837;52.446;-1.930;2023-04-06T01:55:09;99829.45;;;10.14;89.88
60642;BME280;46837;52.446;-1.930;2023-04-06T01:56:09;99826.67;;;10.13;89.88
60642;BME280;46837;52.446;-1.930;2023-04-06T01:57:09;99828.20;;;10.09;90.01
60642;BME280;46837;52.446;-1.930;2023-04-06T01:58:09;99827.61;;;10.07;90.41
60642;BME280;46837;52.446;-1.930;2023-04-06T01:59:09;99826.83;;;10.08;90.44
60642;BME280;46837;52.446;-1.930;2023-04-06T02:00:09;99827.82;;;10.06;90.46
60642;BME280;46837;52.446;-1.930;2023-04-06T02:01:09;99827.93;;;10.06;90.64
60642;BME280;46837;52.446;-1.930;2023-04-06T02:02:09;99826.12;;;10.01;90.71
60642;BME280;46837;52.446;-1.930;2023-04-06T02:03:09;99825.26;;;10.03;90.86
60642;BME280;46837;52.446;-1.930;2023-04-06T02:04:09;99820.83;;;10.05;90.64
60642;BME280;46837;52.446;-1.930;2023-04-06T02:05:09;99821.33;;;10.03;90.55
60642;BME280;46837;52.446;-1.930;2023-04-06T02:06:09;99820.61;;;10.04;90.67
60642;BME280;46837;52.446;-1.930;2023-04-06T02:07:09;99818.00;;;10.03;90.53
60642;BME280;46837;52.446;-1.930;2023-04-06T02:08:09;99819.90;;;10.01;90.86
60642;BME280;46837;52.446;-1.930;2023-04-06T02:09:09;99815.09;;;10.04;90.82
60642;BME280;46837;52.446;-1.930;2023-04-06T02:10:12;99816.04;;;10.03;90.57
60642;BME280;46837;52.446;-1.930;2023-04-06T02:11:09;99817.44;;;10.05;90.66
60642;BME280;46837;52.446;-1.930;2023-04-06T02:12:09;99813.90;;;10.02;90.60
60642;BME280;46837;52.446;-1.930;2023-04-06T02:13:09;99819.74;;;10.06;90.63
60642;BME280;46837;52.446;-1.930;2023-04-06T02:14:09;99818.10;;;10.06;90.53
60642;BME280;46837;52.446;-1.930;2023-04-06T02:15:09;99820.18;;;10.07;90.52
60642;BME280;46837;52.446;-1.930;2023-04-06T02:16:09;99815.55;;;10.03;90.58
60642;BME280;46837;52.446;-1.930;2023-04-06T02:17:09;99815.43;;;10.02;90.66
60642;BME280;46837;52.446;-1.930;2023-04-06T02:18:09;99817.73;;;10.00;90.64
60642;BME280;46837;52.446;-1.930;2023-04-06T02:19:09;99815.26;;;10.01;90.85
60642;BME280;46837;52.446;-1.930;2023-04-06T02:20:09;99813.42;;;10.03;90.83
60642;BME280;46837;52.446;-1.930;2023-04-06T02:21:09;99813.79;;;10.05;90.63
60642;BME280;46837;52.446;-1.930;2023-04-06T02:22:09;99811.87;;;10.04;90.61
60642;BME280;46837;52.446;-1.930;2023-04-06T02:23:09;99812.71;;;10.03;90.65
60642;BME280;46837;52.446;-1.930;2023-04-06T02:24:09;99812.04;;;10.01;90.77
60642;BME280;46837;52.446;-1.930;2023-04-06T02:25:09;99809.97;;;10.02;90.77
60642;BME280;46837;52.446;-1.930;2023-04-06T02:26:09;99808.78;;;10.00;90.82
60642;BME280;46837;52.446;-1.930;2023-04-06T02:27:09;99808.23;;;9.98;91.04
60642;BME280;46837;52.446;-1.930;2023-04-06T02:28:09;99806.20;;;10.00;91.01
60642;BME280;46837;52.446;-1.930;2023-04-06T02:29:09;99802.18;;;10.00;91.03
60642;BME280;46837;52.446;-1.930;2023-04-06T02:30:09;99802.23;;;10.00;90.95
60642;BME280;46837;52.446;-1.930;2023-04-06T02:31:09;99805.39;;;9.99;91.05
60642;BME280;46837;52.446;-1.930;2023-04-06T02:32:09;99800.68;;;9.97;91.13
60642;BME280;46837;52.446;-1.930;2023-04-06T02:33:09;99805.66;;;9.98;91.19
60642;BME280;46837;52.446;-1.930;2023-04-06T02:34:09;99807.13;;;9.98;91.13
60642;BME280;46837;52.446;-1.930;2023-04-06T02:35:09;99807.07;;;9.97;91.17
60642;BME280;46837;52.446;-1.930;2023-04-06T02:36:09;99806.15;;;9.99;91.32
60642;BME280;46837;52.446;-1.930;2023-04-06T02:37:09;99808.72;;;10.02;91.16
60642;BME280;46837;52.446;-1.930;2023-04-06T02:38:09;99801.95;;;10.02;91.13
60642;BME280;46837;52.446;-1.930;2023-04-06T02:39:09;99805.64;;;10.04;91.12
60642;BME280;46837;52.446;-1.930;2023-04-06T02:40:09;99806.69;;;10.01;91.14
60642;BME280;46837;52.446;-1.930;2023-04-06T02:41:09;99805.07;;;9.99;91.18
60642;BME280;46837;52.446;-1.930;2023-04-06T02:42:09;99804.57;;;10.02;91.44
60642;BME280;46837;52.446;-1.930;2023-04-06T02:43:09;99804.74;;;10.03;91.25
60642;BME280;46837;52.446;-1.930;2023-04-06T02:44:09;99801.45;;;10.06;91.15
60642;BME280;46837;52.446;-1.930;2023-04-06T02:45:09;99799.44;;;10.06;90.99
60642;BME280;46837;52.446;-1.930;2023-04-06T02:46:09;99801.18;;;10.07;91.11
60642;BME280;46837;52.446;-1.930;2023-04-06T02:47:09;99799.49;;;10.06;91.00
60642;BME280;46837;52.446;-1.930;2023-04-06T02:48:09;99798.12;;;10.06;91.25
60642;BME280;46837;52.446;-1.930;2023-04-06T02:49:09;99797.48;;;10.04;91.21
60642;BME280;46837;52.446;-1.930;2023-04-06T02:50:09;99794.09;;;10.03;91.28
60642;BME280;46837;52.446;-1.930;2023-04-06T02:51:09;99791.08;;;10.02;91.28
60642;BME280;46837;52.446;-1.930;2023-04-06T02:52:09;99792.67;;;9.98;91.51
60642;BME280;46837;52.446;-1.930;2023-04-06T02:53:09;99788.69;;;10.00;91.46
60642;BME280;46837;52.446;-1.930;2023-04-06T02:54:09;99784.21;;;10.00;91.45
60642;BME280;46837;52.446;-1.930;2023-04-06T02:55:10;99783.87;;;10.04;91.56
60642;BME280;46837;52.446;-1.930;2023-04-06T02:56:09;99784.58;;;10.01;91.46
60642;BME280;46837;52.446;-1.930;2023-04-06T02:57:09;99782.61;;;10.04;91.37
60642;BME280;46837;52.446;-1.930;2023-04-06T02:58:09;99781.51;;;10.08;91.21
60642;BME280;46837;52.446;-1.930;2023-04-06T02:59:09;99780.97;;;10.09;91.04
60642;BME280;46837;52.446;-1.930;2023-04-06T03:00:09;99781.90;;;10.09;91.04
60642;BME280;46837;52.446;-1.930;2023-04-06T03:01:09;99781.36;;;10.09;91.01
60642;BME280;46837;52.446;-1.930;2023-04-06T03:02:09;99776.02;;;10.06;91.00
60642;BME280;46837;52.446;-1.930;2023-04-06T03:03:09;99774.70;;;10.09;91.10
60642;BME280;46837;52.446;-1.930;2023-04-06T03:04:09;99770.94;;;10.03;91.08
60642;BME280;46837;52.446;-1.930;2023-04-06T03:05:09;99769.03;;;10.02;91.17
60642;BME280;46837;52.446;-1.930;2023-04-06T03:06:09;99766.51;;;10.05;91.26
60642;BME280;46837;52.446;-1.930;2023-04-06T03:07:09;99766.80;;;10.03;91.07
60642;BME280;46837;52.446;-1.930;2023-04-06T03:08:09;99769.68;;;10.05;91.12
60642;BME280;46837;52.446;-1.930;2023-04-06T03:09:09;99766.13;;;10.05;90.99
60642;BME280;46837;52.446;-1.930;2023-04-06T03:10:09;99769.46;;;10.06;90.83
60642;BME280;46837;52.446;-1.930;2023-04-06T03:11:09;99766.52;;;10.06;90.69
60642;BME280;46837;52.446;-1.930;2023-04-06T03:12:09;99761.60;;;10.05;90.72
60642;BME280;46837;52.446;-1.930;2023-04-06T03:13:09;99761.38;;;10.01;90.89
60642;BME280;46837;52.446;-1.930;2023-04-06T03:14:09;99760.07;;;10.02;91.08
60642;BME280;46837;52.446;-1.930;2023-04-06T03:15:09;99758.45;;;9.99;90.94
60642;BME280;46837;52.446;-1.930;2023-04-06T03:16:09;99761.45;;;9.99;90.81
60642;BME280;46837;52.446;-1.930;2023-04-06T03:17:09;99759.38;;;9.96;90.86
60642;BME280;46837;52.446;-1.930;2023-04-06T03:18:09;99754.30;;;9.95;90.92
60642;BME280;46837;52.446;-1.930;2023-04-06T03:19:09;99751.89;;;9.98;90.91
60642;BME280;46837;52.446;-1.930;2023-04-06T03:20:09;99750.74;;;9.98;90.66
60642;BME280;46837;52.446;-1.930;2023-04-06T03:21:09;99749.83;;;9.96;90.66
60642;BME280;46837;52.446;-1.930;2023-04-06T03:22:09;99750.42;;;9.94;90.77
60642;BME280;46837;52.446;-1.930;2023-04-06T03:23:09;99743.38;;;9.94;90.75
60642;BME280;46837;52.446;-1.930;2023-04-06T03:24:09;99739.18;;;9.90;90.79
60642;BME280;46837;52.446;-1.930;2023-04-06T03:25:09;99738.96;;;9.90;91.03
60642;BME280;46837;52.446;-1.930;2023-04-06T03:26:09;99739.79;;;9.89;90.95
60642;BME280;46837;52.446;-1.930;2023-04-06T03:27:09;99742.29;;;9.90;90.99
60642;BME280;46837;52.446;-1.930;2023-04-06T03:28:09;99739.67;;;9.90;91.01
60642;BME280;46837;52.446;-1.930;2023-04-06T03:29:09;99743.72;;;9.92;90.95
60642;BME280;46837;52.446;-1.930;2023-04-06T03:30:09;99737.93;;;9.88;90.90
60642;BME280;46837;52.446;-1.930;2023-04-06T03:31:09;99734.73;;;9.86;91.33
60642;BME280;46837;52.446;-1.930;2023-04-06T03:32:09;99734.60;;;9.83;91.38
60642;BME280;46837;52.446;-1.930;2023-04-06T03:33:09;99730.89;;;9.84;91.67
60642;BME280;46837;52.446;-1.930;2023-04-06T03:34:09;99730.34;;;9.87;91.59
60642;BME280;46837;52.446;-1.930;2023-04-06T03:35:09;99731.55;;;9.89;91.28
60642;BME280;46837;52.446;-1.930;2023-04-06T03:36:09;99734.11;;;9.87;91.31
60642;BME280;46837;52.446;-1.930;2023-04-06T03:37:09;99733.89;;;9.88;91.30
60642;BME280;46837;52.446;-1.930;2023-04-06T03:38:09;99729.15;;;9.88;91.31
60642;BME280;46837;52.446;-1.930;2023-04-06T03:39:09;99726.58;;;9.88;91.25
60642;BME280;46837;52.446;-1.930;2023-04-06T03:40:09;99728.23;;;9.85;91.35
60642;BME280;46837;52.446;-1.930;2023-04-06T03:41:09;99728.92;;;9.86;91.45
60642;BME280;46837;52.446;-1.930;2023-04-06T03:42:09;99733.23;;;9.87;91.29
60642;BME280;46837;52.446;-1.930;2023-04-06T03:43:09;99734.71;;;9.88;91.37
60642;BME280;46837;52.446;-1.930;2023-04-06T03:44:09;99733.02;;;9.87;91.33
60642;BME280;46837;52.446;-1.930;2023-04-06T03:45:09;99729.42;;;9.88;91.31
60642;BME280;46837;52.446;-1.930;2023-04-06T03:46:09;99726.58;;;9.88;91.42
60642;BME280;46837;52.446;-1.930;2023-04-06T03:47:09;99722.38;;;9.84;91.29
60642;BME280;46837;52.446;-1.930;2023-04-06T03:48:09;99721.36;;;9.86;91.38
60642;BME280;46837;52.446;-1.930;2023-04-06T03:49:09;99723.70;;;9.85;91.28
60642;BME280;46837;52.446;-1.930;2023-04-06T03:50:09;99723.65;;;9.82;91.41
60642;BME280;46837;52.446;-1.930;2023-04-06T03:51:09;99721.46;;;9.82;91.51
60642;BME280;46837;52.446;-1.930;2023-04-06T03:52:09;99718.68;;;9.80;91.50
60642;BME280;46837;52.446;-1.930;2023-04-06T03:53:09;99716.28;;;9.81;91.44
60642;BME280;46837;52.446;-1.930;2023-04-06T03:54:09;99719.45;;;9.78;91.47
60642;BME280;46837;52.446;-1.930;2023-04-06T03:55:09;99713.07;;;9.78;91.55
60642;BME280;46837;52.446;-1.930;2023-04-06T03:56:09;99714.21;;;9.79;91.58
60642;BME280;46837;52.446;-1.930;2023-04-06T03:57:09;99712.67;;;9.79;91.46
60642;BME280;46837;52.446;-1.930;2023-04-06T03:58:09;99709.23;;;9.79;91.42
60642;BME280;46837;52.446;-1.930;2023-04-06T03:59:09;99710.34;;;9.78;91.41
60642;BME280;46837;52.446;-1.930;2023-04-06T04:00:09;99710.07;;;9.78;91.54
60642;BME280;46837;52.446;-1.930;2023-04-06T04:01:09;99714.16;;;9.74;91.66
60642;BME280;46837;52.446;-1.930;2023-04-06T04:02:09;99709.20;;;9.71;91.89
60642;BME280;46837;52.446;-1.930;2023-04-06T04:03:09;99709.47;;;9.71;92.08
60642;BME280;46837;52.446;-1.930;2023-04-06T04:04:09;99713.12;;;9.71;92.17
60642;BME280;46837;52.446;-1.930;2023-04-06T04:05:09;99706.19;;;9.73;92.18
60642;BME280;46837;52.446;-1.930;2023-04-06T04:06:09;99703.84;;;9.78;92.03
60642;BME280;46837;52.446;-1.930;2023-04-06T04:07:09;99707.23;;;9.78;91.75
60642;BME280;46837;52.446;-1.930;2023-04-06T04:08:09;99702.52;;;9.79;91.77
60642;BME280;46837;52.446;-1.930;2023-04-06T04:09:09;99698.88;;;9.83;91.69
60642;BME280;46837;52.446;-1.930;2023-04-06T04:10:09;99701.10;;;9.84;91.54
60642;BME280;46837;52.446;-1.930;2023-04-06T04:11:09;99697.01;;;9.85;91.45
60642;BME280;46837;52.446;-1.930;2023-04-06T04:12:09;99697.65;;;9.86;91.34
60642;BME280;46837;52.446;-1.930;2023-04-06T04:13:09;99692.86;;;9.84;91.25
60642;BME280;46837;52.446;-1.930;2023-04-06T04:14:09;99686.25;;;9.84;91.27
60642;BME280;46837;52.446;-1.930;2023-04-06T04:15:09;99684.88;;;9.87;91.23
60642;BME280;46837;52.446;-1.930;2023-04-06T04:16:09;99683.80;;;9.83;91.12
60642;BME280;46837;52.446;-1.930;2023-04-06T04:17:09;99678.56;;;9.84;91.29
60642;BME280;46837;52.446;-1.930;2023-04-06T04:18:09;99680.41;;;9.83;91.22
60642;BME280;46837;52.446;-1.930;2023-04-06T04:19:09;99681.89;;;9.84;91.18
60642;BME280;46837;52.446;-1.930;2023-04-06T04:20:09;99683.04;;;9.84;91.09
60642;BME280;46837;52.446;-1.930;2023-04-06T04:21:09;99682.39;;;9.86;90.98
60642;BME280;46837;52.446;-1.930;2023-04-06T04:22:09;99683.58;;;9.84;90.85
60642;BME280;46837;52.446;-1.930;2023-04-06T04:23:09;99682.65;;;9.84;90.93
60642;BME280;46837;52.446;-1.930;2023-04-06T04:24:09;99684.45;;;9.84;90.94
60642;BME280;46837;52.446;-1.930;2023-04-06T04:25:09;99685.39;;;9.82;90.85
60642;BME280;46837;52.446;-1.930;2023-04-06T04:26:09;99687.62;;;9.81;90.96
60642;BME280;46837;52.446;-1.930;2023-04-06T04:27:09;99690.63;;;9.81;90.90
60642;BME280;46837;52.446;-1.930;2023-04-06T04:28:09;99696.04;;;9.82;91.01
60642;BME280;46837;52.446;-1.930;2023-04-06T04:29:09;99702.64;;;9.82;90.91
60642;BME280;46837;52.446;-1.930;2023-04-06T04:30:09;99704.00;;;9.82;90.86
60642;BME280;46837;52.446;-1.930;2023-04-06T04:31:09;99707.22;;;9.78;90.96
60642;BME280;46837;52.446;-1.930;2023-04-06T04:32:09;99710.00;;;9.81;91.15
60642;BME280;46837;52.446;-1.930;2023-04-06T04:33:09;99709.24;;;9.82;91.08
60642;BME280;46837;52.446;-1.930;2023-04-06T04:34:09;99712.34;;;9.83;91.04
60642;BME280;46837;52.446;-1.930;2023-04-06T04:35:09;99708.62;;;9.86;91.05
60642;BME280;46837;52.446;-1.930;2023-04-06T04:36:09;99705.04;;;9.85;90.94
60642;BME280;46837;52.446;-1.930;2023-04-06T04:37:09;99707.58;;;9.87;91.03
60642;BME280;46837;52.446;-1.930;2023-04-06T04:38:09;99704.33;;;9.82;90.85
60642;BME280;46837;52.446;-1.930;2023-04-06T04:39:09;99708.53;;;9.86;91.25
60642;BME280;46837;52.446;-1.930;2023-04-06T04:40:09;99710.87;;;9.90;91.03
60642;BME280;46837;52.446;-1.930;2023-04-06T04:41:09;99710.69;;;9.96;90.82
60642;BME280;46837;52.446;-1.930;2023-04-06T04:42:09;99710.35;;;9.98;90.55
60642;BME280;46837;52.446;-1.930;2023-04-06T04:43:09;99710.13;;;9.97;90.49
60642;BME280;46837;52.446;-1.930;2023-04-06T04:44:09;99716.90;;;9.97;90.50
60642;BME280;46837;52.446;-1.930;2023-04-06T04:45:09;99709.57;;;10.00;90.61
60642;BME280;46837;52.446;-1.930;2023-04-06T04:46:09;99708.93;;;10.01;90.24
60642;BME280;46837;52.446;-1.930;2023-04-06T04:47:09;99710.46;;;10.02;90.25
60642;BME280;46837;52.446;-1.930;2023-04-06T04:48:09;99708.54;;;10.06;90.16
60642;BME280;46837;52.446;-1.930;2023-04-06T04:49:09;99708.96;;;10.08;90.01
60642;BME280;46837;52.446;-1.930;2023-04-06T04:50:09;99708.64;;;10.09;89.82
60642;BME280;46837;52.446;-1.930;2023-04-06T04:51:09;99706.63;;;10.07;89.75
60642;BME280;46837;52.446;-1.930;2023-04-06T04:52:09;99708.43;;;10.05;89.82
60642;BME280;46837;52.446;-1.930;2023-04-06T04:53:09;99713.67;;;10.07;90.02
60642;BME280;46837;52.446;-1.930;2023-04-06T04:54:09;99712.52;;;10.07;89.86
60642;BME280;46837;52.446;-1.930;2023-04-06T04:55:09;99705.65;;;10.07;89.87
60642;BME280;46837;52.446;-1.930;2023-04-06T04:56:09;99703.62;;;10.05;89.87
60642;BME280;46837;52.446;-1.930;2023-04-06T04:57:09;99704.22;;;10.06;89.98
60642;BME280;46837;52.446;-1.930;2023-04-06T04:58:09;99704.11;;;10.05;89.81
60642;BME280;46837;52.446;-1.930;2023-04-06T04:59:09;99704.23;;;10.07;89.92
60642;BME280;46837;52.446;-1.930;2023-04-06T05:00:09;99707.50;;;10.05;89.85
60642;BME280;46837;52.446;-1.930;2023-04-06T05:01:09;99707.62;;;10.03;89.79
60642;BME280;46837;52.446;-1.930;2023-04-06T05:02:09;99711.65;;;10.06;89.88
60642;BME280;46837;52.446;-1.930;2023-04-06T05:03:09;99708.28;;;10.03;89.80
60642;BME280;46837;52.446;-1.930;2023-04-06T05:04:09;99710.52;;;10.04;89.97
60642;BME280;46837;52.446;-1.930;2023-04-06T05:05:09;99707.22;;;10.05;89.83
60642;BME280;46837;52.446;-1.930;2023-04-06T05:06:09;99704.93;;;10.05;89.90
60642;BME280;46837;52.446;-1.930;2023-04-06T05:07:09;99704.28;;;10.05;89.81
60642;BME280;46837;52.446;-1.930;2023-04-06T05:08:09;99702.30;;;10.08;89.79
60642;BME280;46837;52.446;-1.930;2023-04-06T05:09:09;99706.46;;;10.07;89.64
60642;BME280;46837;52.446;-1.930;2023-04-06T05:10:09;99704.38;;;10.08;89.71
60642;BME280;46837;52.446;-1.930;2023-04-06T05:11:09;99704.21;;;10.08;89.63
60642;BME280;46837;52.446;-1.930;2023-04-06T05:12:09;99707.66;;;10.06;89.56
60642;BME280;46837;52.446;-1.930;2023-04-06T05:13:09;99709.30;;;10.06;89.70
60642;BME280;46837;52.446;-1.930;2023-04-06T05:14:09;99709.46;;;10.04;89.71